Time;durP1;ratioP1;P1;durP2;ratioP2;P2;SDS_P1;SDS_P2;PMS_P1;PMS_P2;Temp;Humidity;BMP_temperature;BMP_pressure;BME280_temperature;BME280_humidity;BME280_pressure;Samples;Min_cycle;Max_cycle;Signal;HPM_P1;HPM_P2
2024/01/21 00:00:29;;;;;;;;;;;;;;;2.74;67.09;100808.25;4994572;28;20387;-79
2024/01/21 00:02:54;;;;;;;;;;;;;;;2.75;68.24;100811.69;4995026;28;19913;-79
2024/01/21 00:05:20;;;;;;;;;;;;;;;2.77;68.02;100812.44;4995525;28;19957;-79
2024/01/21 00:07:45;;;;;;;;;;;;;;;2.80;67.66;100807.84;4995098;28;20394;-79
2024/01/21 00:10:10;;;;;;;;;;;;;;;2.80;67.54;100818.28;4995574;28;19944;-79
2024/01/21 00:12:36;;;;;;;;;;;;;;;2.84;67.96;100816.31;4995224;28;20280;-79
2024/01/21 00:15:02;;;;;;;;;;;;;;;2.85;67.44;100807.56;4995494;28;19918;-79
2024/01/21 00:17:27;;;;;;;;;;;;;;;2.90;67.77;100810.72;4994825;28;19927;-79
2024/01/21 00:19:52;;;;;;;;;;;;;;;2.95;67.33;100813.03;4994032;28;19928;-78
2024/01/21 00:22:18;;;;;;;;;;;;;;;2.92;67.18;100815.84;4994668;28;19917;-78
2024/01/21 00:24:43;;;;;;;;;;;;;;;2.87;67.64;100819.56;4994746;28;19920;-78
2024/01/21 00:27:08;;;;;;;;;;;;;;;2.87;67.72;100808.31;4994662;28;20386;-78
2024/01/21 00:29:34;;;;;;;;;;;;;;;2.84;67.60;100813.72;4997989;28;19921;-78
2024/01/21 00:31:59;;;;;;;;;;;;;;;2.75;66.57;100815.13;4999852;28;19914;-78
2024/01/21 00:34:24;;;;;;;;;;;;;;;2.68;67.54;100813.84;5003780;28;19913;-77
2024/01/21 00:36:49;;;;;;;;;;;;;;;2.66;67.76;100827.91;5003170;28;19953;-77
2024/01/21 00:39:15;;;;;;;;;;;;;;;2.64;67.74;100829.78;4996190;28;19917;-77
2024/01/21 00:41:40;;;;;;;;;;;;;;;2.57;67.83;100831.09;4994675;28;20012;-77
2024/01/21 00:44:05;;;;;;;;;;;;;;;2.52;67.79;100837.44;4994581;28;19914;-77
2024/01/21 00:46:31;;;;;;;;;;;;;;;2.53;68.22;100839.13;4996369;28;19914;-77
2024/01/21 00:48:58;;;;;;;;;;;;;;;2.45;67.83;100836.13;4996417;28;19920;-77
2024/01/21 00:51:24;;;;;;;;;;;;;;;2.34;67.42;100840.34;4996399;28;19921;-77
2024/01/21 00:53:49;;;;;;;;;;;;;;;2.32;68.47;100837.00;4996400;28;19914;-77
2024/01/21 00:56:14;;;;;;;;;;;;;;;2.27;67.82;100839.03;4996117;28;19914;-77
2024/01/21 00:58:39;;;;;;;;;;;;;;;2.16;67.70;100842.25;4996237;28;19917;-77
2024/01/21 01:01:05;;;;;;;;;;;;;;;2.08;68.50;100841.88;4994986;28;19918;-78
2024/01/21 01:03:30;;;;;;;;;;;;;;;2.00;68.52;100831.94;4996334;28;19914;-78
2024/01/21 01:05:56;;;;;;;;;;;;;;;2.04;68.68;100837.78;4996994;28;19940;-77
2024/01/21 01:08:21;;;;;;;;;;;;;;;2.04;68.93;100838.63;4995987;28;19910;-78
2024/01/21 01:10:47;;;;;;;;;;;;;;;1.99;68.48;100843.28;4996487;28;19936;-78
2024/01/21 01:13:12;;;;;;;;;;;;;;;1.97;68.72;100836.47;4996761;28;19920;-78
2024/01/21 01:15:39;;;;;;;;;;;;;;;1.96;69.25;100832.22;4993749;28;20355;-79
2024/01/21 01:18:05;;;;;;;;;;;;;;;2.00;69.07;100836.31;4993658;28;19918;-78
2024/01/21 01:20:30;;;;;;;;;;;;;;;2.02;69.42;100834.44;4993225;28;19922;-78
2024/01/21 01:22:58;;;;;;;;;;;;;;;2.06;69.08;100834.16;4994730;28;19917;-78
2024/01/21 01:25:23;;;;;;;;;;;;;;;2.04;69.38;100833.41;4994668;28;20310;-77
2024/01/21 01:27:48;;;;;;;;;;;;;;;1.94;69.47;100839.28;4994684;28;19917;-78
2024/01/21 01:30:14;;;;;;;;;;;;;;;1.98;69.59;100832.94;4994630;28;19949;-77
2024/01/21 01:32:39;;;;;;;;;;;;;;;2.02;69.12;100837.03;4994461;28;20310;-78
2024/01/21 01:35:05;;;;;;;;;;;;;;;2.00;69.49;100839.75;4994597;28;20482;-77
2024/01/21 01:37:30;;;;;;;;;;;;;;;2.05;70.04;100844.69;4994301;28;19925;-77
2024/01/21 01:39:55;;;;;;;;;;;;;;;2.07;69.56;100840.22;4993553;28;20037;-77
2024/01/21 01:42:20;;;;;;;;;;;;;;;2.11;69.38;100842.53;4994251;28;19960;-77
2024/01/21 01:44:46;;;;;;;;;;;;;;;2.14;69.67;100850.19;4992943;28;19913;-77
2024/01/21 01:47:11;;;;;;;;;;;;;;;2.17;69.03;100842.16;4994422;28;20327;-78
2024/01/21 01:49:37;;;;;;;;;;;;;;;2.21;69.01;100842.81;4994438;28;19993;-78
2024/01/21 01:52:03;;;;;;;;;;;;;;;2.21;69.70;100843.66;4994164;28;20007;-78
2024/01/21 01:54:29;;;;;;;;;;;;;;;2.25;69.03;100848.72;4993173;28;20380;-78
2024/01/21 01:56:54;;;;;;;;;;;;;;;2.25;69.32;100841.75;4992771;28;19917;-78
2024/01/21 01:59:20;;;;;;;;;;;;;;;2.30;69.10;100841.47;4994376;28;19920;-78
2024/01/21 02:01:46;;;;;;;;;;;;;;;2.32;69.45;100848.25;4992827;28;20406;-78
2024/01/21 02:04:11;;;;;;;;;;;;;;;2.31;69.22;100845.75;4992925;28;19939;-78
2024/01/21 02:06:37;;;;;;;;;;;;;;;2.38;69.29;100855.69;4993861;28;19913;-77
2024/01/21 02:09:03;;;;;;;;;;;;;;;2.43;68.94;100858.03;4992548;28;19945;-78
2024/01/21 02:11:29;;;;;;;;;;;;;;;2.45;69.23;100849.19;4994442;28;19914;-77
2024/01/21 02:13:54;;;;;;;;;;;;;;;2.50;68.89;100864.53;4993851;28;19914;-77
2024/01/21 02:16:19;;;;;;;;;;;;;;;2.47;68.44;100862.94;4994657;28;20451;-78
2024/01/21 02:18:45;;;;;;;;;;;;;;;2.47;69.10;100856.91;4995263;28;19913;-77
2024/01/21 02:21:10;;;;;;;;;;;;;;;2.48;68.94;100854.19;4994532;28;20331;-77
2024/01/21 02:23:36;;;;;;;;;;;;;;;2.50;68.76;100856.72;4994564;28;20006;-77
2024/01/21 02:26:01;;;;;;;;;;;;;;;2.51;68.82;100858.38;4994398;28;20311;-78
2024/01/21 02:28:26;;;;;;;;;;;;;;;2.51;68.79;100861.81;4994332;28;19966;-77
2024/01/21 02:30:52;;;;;;;;;;;;;;;2.51;68.93;100859.22;4993237;28;19921;-78
2024/01/21 02:33:17;;;;;;;;;;;;;;;2.54;68.63;100861.63;4993762;28;19913;-77
2024/01/21 02:35:42;;;;;;;;;;;;;;;2.53;68.74;100859.97;4993525;28;19921;-77
2024/01/21 02:38:07;;;;;;;;;;;;;;;2.55;69.00;100862.47;4993083;28;19922;-77
2024/01/21 02:40:34;;;;;;;;;;;;;;;2.57;68.77;100865.00;4993223;28;20461;-77
2024/01/21 02:42:59;;;;;;;;;;;;;;;2.61;68.76;100869.09;4993058;28;19998;-77
2024/01/21 02:45:25;;;;;;;;;;;;;;;2.59;68.81;100871.78;4992218;28;19917;-77
2024/01/21 02:47:50;;;;;;;;;;;;;;;2.62;68.57;100878.59;4993195;28;19920;-78
2024/01/21 02:50:15;;;;;;;;;;;;;;;2.60;68.33;100881.28;4993153;28;20321;-78
2024/01/21 02:52:40;;;;;;;;;;;;;;;2.61;68.71;100882.13;4991652;28;19964;-78
2024/01/21 02:55:06;;;;;;;;;;;;;;;2.62;68.76;100875.97;4992269;28;19914;-78
2024/01/21 02:57:31;;;;;;;;;;;;;;;2.61;69.25;100890.78;4993298;28;20315;-78
2024/01/21 02:59:56;;;;;;;;;;;;;;;2.60;68.58;100878.69;4993263;28;20284;-78
2024/01/21 03:02:21;;;;;;;;;;;;;;;2.61;69.08;100880.34;4991739;28;19953;-78
2024/01/21 03:04:47;;;;;;;;;;;;;;;2.64;68.76;100887.97;4991928;28;19920;-78
2024/01/21 03:07:12;;;;;;;;;;;;;;;2.62;69.21;100873.38;4991840;28;20399;-78
2024/01/21 03:09:37;;;;;;;;;;;;;;;2.63;68.68;100875.88;4992031;28;19917;-78
2024/01/21 03:12:02;;;;;;;;;;;;;;;2.59;69.31;100876.16;4993223;28;19925;-78
2024/01/21 03:14:28;;;;;;;;;;;;;;;2.60;69.33;100881.28;4991943;28;19945;-78
2024/01/21 03:16:53;;;;;;;;;;;;;;;2.60;68.92;100877.84;4991667;28;19925;-78
2024/01/21 03:19:18;;;;;;;;;;;;;;;2.57;69.69;100878.88;4992695;28;20387;-78
2024/01/21 03:21:44;;;;;;;;;;;;;;;2.54;69.50;100874.69;4992531;28;19914;-77
2024/01/21 03:24:09;;;;;;;;;;;;;;;2.55;69.25;100875.50;4991789;28;19914;-78
2024/01/21 03:26:34;;;;;;;;;;;;;;;2.52;69.31;100876.53;4992743;28;19914;-77
2024/01/21 03:28:59;;;;;;;;;;;;;;;2.52;69.87;100879.16;4992844;28;19971;-77
2024/01/21 03:31:25;;;;;;;;;;;;;;;2.41;69.53;100873.75;4992590;28;20299;-78
2024/01/21 03:33:50;;;;;;;;;;;;;;;2.44;69.46;100876.19;4992610;28;19914;-78
2024/01/21 03:36:15;;;;;;;;;;;;;;;2.48;69.57;100882.88;4991385;28;19914;-78
2024/01/21 03:38:44;;;;;;;;;;;;;;;2.52;69.96;100868.72;4991242;28;19968;-78
2024/01/21 03:41:09;;;;;;;;;;;;;;;2.55;69.67;100873.75;4992359;28;19914;-78
2024/01/21 03:43:34;;;;;;;;;;;;;;;2.63;69.72;100870.66;4992405;28;19933;-78
2024/01/21 03:46:01;;;;;;;;;;;;;;;2.68;69.25;100871.22;4991313;28;19997;-78
2024/01/21 03:48:26;;;;;;;;;;;;;;;2.73;69.12;100863.94;4992566;28;20000;-78
2024/01/21 03:50:51;;;;;;;;;;;;;;;2.71;68.74;100873.63;4991305;28;20414;-78
2024/01/21 03:53:16;;;;;;;;;;;;;;;2.73;69.58;100869.16;4991275;28;19968;-77
2024/01/21 03:55:42;;;;;;;;;;;;;;;2.77;69.05;100870.66;4992422;28;19921;-77
2024/01/21 03:58:07;;;;;;;;;;;;;;;2.77;69.57;100869.81;4991215;28;20403;-77
2024/01/21 04:00:32;;;;;;;;;;;;;;;2.81;68.83;100872.13;4992655;28;19988;-77
2024/01/21 04:02:57;;;;;;;;;;;;;;;2.79;69.52;100871.38;4994356;28;19921;-78
2024/01/21 04:05:23;;;;;;;;;;;;;;;2.80;69.58;100869.63;4995968;28;19920;-78
2024/01/21 04:07:48;;;;;;;;;;;;;;;2.74;68.91;100876.06;4997787;28;19949;-77
2024/01/21 04:10:13;;;;;;;;;;;;;;;2.75;69.39;100871.66;4997206;28;19921;-77
2024/01/21 04:12:38;;;;;;;;;;;;;;;2.77;69.28;100864.59;4997350;28;20506;-77
2024/01/21 04:15:04;;;;;;;;;;;;;;;2.75;69.29;100875.13;4996380;28;19914;-77
2024/01/21 04:17:29;;;;;;;;;;;;;;;2.75;68.98;100876.88;4994545;28;19940;-77
2024/01/21 04:19:54;;;;;;;;;;;;;;;2.73;69.24;100873.53;4995735;28;19929;-77
2024/01/21 04:22:21;;;;;;;;;;;;;;;2.73;69.08;100873.53;4995817;28;19937;-78
2024/01/21 04:24:46;;;;;;;;;;;;;;;2.73;69.72;100866.56;4994305;28;19968;-77
2024/01/21 04:27:12;;;;;;;;;;;;;;;2.73;69.58;100878.75;4995951;28;19914;-77
2024/01/21 04:29:37;;;;;;;;;;;;;;;2.71;70.26;100883.22;4995796;28;19914;-77
2024/01/21 04:32:02;;;;;;;;;;;;;;;2.71;69.98;100883.22;4996092;28;20001;-77
2024/01/21 04:34:28;;;;;;;;;;;;;;;2.70;69.85;100881.56;4995667;28;19914;-77
2024/01/21 04:36:53;;;;;;;;;;;;;;;2.71;70.10;100889.28;4995617;28;19921;-77
2024/01/21 04:39:21;;;;;;;;;;;;;;;2.70;70.37;100890.22;4995506;28;19914;-77
2024/01/21 04:41:46;;;;;;;;;;;;;;;2.70;70.00;100895.44;4994356;28;20004;-77
2024/01/21 04:44:12;;;;;;;;;;;;;;;2.69;69.75;100898.97;4996297;28;19953;-77
2024/01/21 04:46:37;;;;;;;;;;;;;;;2.69;69.73;100893.75;4997171;28;20311;-77
2024/01/21 04:49:02;;;;;;;;;;;;;;;2.71;70.13;100899.72;4996824;28;19917;-77
2024/01/21 04:51:28;;;;;;;;;;;;;;;2.72;70.28;100898.78;4997013;28;19920;-77
2024/01/21 04:53:53;;;;;;;;;;;;;;;2.72;70.19;100900.53;4997189;28;19925;-77
2024/01/21 04:56:18;;;;;;;;;;;;;;;2.71;69.69;100906.69;4997223;28;20383;-77
2024/01/21 04:58:44;;;;;;;;;;;;;;;2.70;70.13;100905.03;4995267;28;19937;-77
2024/01/21 05:01:09;;;;;;;;;;;;;;;2.69;70.02;100913.78;4994996;28;19914;-77
2024/01/21 05:03:34;;;;;;;;;;;;;;;2.66;70.51;100913.97;4994949;28;19972;-77
2024/01/21 05:06:00;;;;;;;;;;;;;;;2.68;70.31;100906.88;4994858;28;19992;-77
2024/01/21 05:08:25;;;;;;;;;;;;;;;2.69;69.81;100913.78;4994842;28;20371;-77
2024/01/21 05:10:50;;;;;;;;;;;;;;;2.68;70.38;100918.16;4994872;28;19921;-77
2024/01/21 05:13:16;;;;;;;;;;;;;;;2.62;70.46;100925.50;4993711;28;19924;-77
2024/01/21 05:15:41;;;;;;;;;;;;;;;2.59;70.36;100923.94;4993913;28;19937;-77
2024/01/21 05:18:06;;;;;;;;;;;;;;;2.60;69.71;100915.19;4995414;28;19933;-77
2024/01/21 05:20:31;;;;;;;;;;;;;;;2.60;69.69;100919.56;4994048;28;20008;-77
2024/01/21 05:22:57;;;;;;;;;;;;;;;2.58;69.83;100918.81;4993594;28;20009;-77
2024/01/21 05:25:22;;;;;;;;;;;;;;;2.52;70.00;100926.06;4995078;28;19913;-77
2024/01/21 05:27:47;;;;;;;;;;;;;;;2.54;70.43;100931.19;4993872;28;19914;-77
2024/01/21 05:30:14;;;;;;;;;;;;;;;2.55;70.59;100932.88;4994273;28;19914;-78
2024/01/21 05:32:39;;;;;;;;;;;;;;;2.55;70.11;100938.91;4994278;28;20307;-77
2024/01/21 05:35:06;;;;;;;;;;;;;;;2.56;70.02;100937.16;4995352;28;19914;-77
2024/01/21 05:37:31;;;;;;;;;;;;;;;2.55;70.20;100944.13;4993857;28;19922;-77
2024/01/21 05:39:57;;;;;;;;;;;;;;;2.55;69.96;100946.75;4995113;28;19914;-77
2024/01/21 05:42:22;;;;;;;;;;;;;;;2.55;70.15;100958.94;4995490;28;20000;-78
2024/01/21 05:44:47;;;;;;;;;;;;;;;2.57;70.06;100956.25;4994598;28;19914;-77
2024/01/21 05:47:12;;;;;;;;;;;;;;;2.56;70.17;100950.19;4994010;28;20354;-77
2024/01/21 05:49:38;;;;;;;;;;;;;;;2.52;69.82;100957.34;4994152;28;20009;-78
2024/01/21 05:52:03;;;;;;;;;;;;;;;2.53;70.12;100961.63;4992879;28;19918;-77
2024/01/21 05:54:28;;;;;;;;;;;;;;;2.54;70.09;100971.13;4994353;28;19920;-77
2024/01/21 05:56:54;;;;;;;;;;;;;;;2.56;69.78;100976.25;4994051;28;19918;-77
2024/01/21 05:59:20;;;;;;;;;;;;;;;2.58;70.08;100976.16;4993371;28;20390;-77
2024/01/21 06:01:49;;;;;;;;;;;;;;;2.60;69.97;100972.53;4995733;28;20184;-77
2024/01/21 06:04:14;;;;;;;;;;;;;;;2.63;70.48;100985.38;4994075;28;19914;-78
2024/01/21 06:06:40;;;;;;;;;;;;;;;2.67;70.20;100983.44;4993834;28;20060;-76
2024/01/21 06:09:05;;;;;;;;;;;;;;;2.67;70.28;100986.03;4994739;28;19914;-76
2024/01/21 06:11:30;;;;;;;;;;;;;;;2.69;70.12;100992.84;4994700;28;19913;-77
2024/01/21 06:13:56;;;;;;;;;;;;;;;2.74;70.04;100995.19;4994946;28;19914;-76
2024/01/21 06:16:21;;;;;;;;;;;;;;;2.74;69.77;101000.38;4993640;28;19937;-77
2024/01/21 06:18:46;;;;;;;;;;;;;;;2.69;69.77;100999.81;4993351;28;19914;-77
2024/01/21 06:21:11;;;;;;;;;;;;;;;2.69;69.79;101002.44;4994241;28;19928;-77
2024/01/21 06:23:37;;;;;;;;;;;;;;;2.70;70.13;101002.34;4993121;28;20406;-77
2024/01/21 06:26:02;;;;;;;;;;;;;;;2.70;70.08;101004.13;4993903;28;19921;-77
2024/01/21 06:28:27;;;;;;;;;;;;;;;2.69;69.46;101005.88;4995177;28;20000;-77
2024/01/21 06:30:53;;;;;;;;;;;;;;;2.61;70.38;101004.66;4994193;28;20429;-77
2024/01/21 06:33:19;;;;;;;;;;;;;;;2.59;70.27;101011.75;4996000;28;19914;-76
2024/01/21 06:35:44;;;;;;;;;;;;;;;2.59;69.88;101011.75;4995503;28;20481;-77
2024/01/21 06:38:09;;;;;;;;;;;;;;;2.59;69.75;101023.00;4993383;28;19922;-77
2024/01/21 06:40:34;;;;;;;;;;;;;;;2.61;69.94;101021.16;4993893;28;20398;-77
2024/01/21 06:43:00;;;;;;;;;;;;;;;2.61;69.75;101025.53;4994275;28;19913;-77
2024/01/21 06:45:26;;;;;;;;;;;;;;;2.60;69.99;101024.69;4993488;28;19917;-77
2024/01/21 06:47:51;;;;;;;;;;;;;;;2.60;69.77;101029.06;4993265;28;20030;-77
2024/01/21 06:50:16;;;;;;;;;;;;;;;2.63;69.65;101036.69;4993264;28;19921;-77
2024/01/21 06:52:41;;;;;;;;;;;;;;;2.66;69.92;101032.13;4993213;28;19914;-77
2024/01/21 06:55:07;;;;;;;;;;;;;;;2.59;69.43;101036.03;4992707;28;19964;-77
2024/01/21 06:57:32;;;;;;;;;;;;;;;2.59;70.15;101038.66;4991655;28;20009;-77
2024/01/21 06:59:58;;;;;;;;;;;;;;;2.63;69.92;101039.31;4991737;28;20437;-77
2024/01/21 07:02:23;;;;;;;;;;;;;;;2.63;69.96;101045.34;4993079;28;19920;-77
2024/01/21 07:04:48;;;;;;;;;;;;;;;2.66;69.65;101047.78;4993128;28;19914;-77
2024/01/21 07:07:13;;;;;;;;;;;;;;;2.71;70.10;101047.50;4993115;28;19914;-77
2024/01/21 07:09:39;;;;;;;;;;;;;;;2.72;69.76;101050.03;4992901;28;19913;-77
2024/01/21 07:12:05;;;;;;;;;;;;;;;2.77;69.91;101049.75;4992942;28;19920;-76
2024/01/21 07:14:34;;;;;;;;;;;;;;;2.74;69.66;101053.38;4992399;28;19914;-78
2024/01/21 07:16:59;;;;;;;;;;;;;;;2.73;69.91;101050.88;4991212;28;19922;-76
2024/01/21 07:19:24;;;;;;;;;;;;;;;2.71;70.23;101052.72;4992440;28;20048;-76
2024/01/21 07:21:52;;;;;;;;;;;;;;;2.70;70.28;101057.09;4990780;28;20326;-76
2024/01/21 07:24:17;;;;;;;;;;;;;;;2.69;70.15;101057.19;4992734;28;19917;-76
2024/01/21 07:26:42;;;;;;;;;;;;;;;2.69;69.98;101059.81;4992717;28;20439;-76
2024/01/21 07:29:07;;;;;;;;;;;;;;;2.67;69.99;101054.69;4992879;28;19933;-76
2024/01/21 07:31:33;;;;;;;;;;;;;;;2.69;69.92;101058.03;4992856;28;19914;-75
2024/01/21 07:33:58;;;;;;;;;;;;;;;2.69;69.57;101057.19;4991247;28;19910;-76
2024/01/21 07:36:23;;;;;;;;;;;;;;;2.73;69.76;101066.53;4991231;28;19982;-76
2024/01/21 07:38:49;;;;;;;;;;;;;;;2.74;69.66;101065.59;4995860;28;20288;-76
2024/01/21 07:41:14;;;;;;;;;;;;;;;2.78;69.75;101060.09;4995007;28;19983;-76
2024/01/21 07:43:39;;;;;;;;;;;;;;;2.81;70.28;101066.91;4996476;28;19921;-76
2024/01/21 07:46:05;;;;;;;;;;;;;;;2.80;69.69;101070.44;4995080;28;20401;-75
2024/01/21 07:48:30;;;;;;;;;;;;;;;2.72;69.88;101065.69;4996245;28;20411;-76
2024/01/21 07:50:55;;;;;;;;;;;;;;;2.77;69.34;101068.00;4995962;28;20418;-76
2024/01/21 07:53:21;;;;;;;;;;;;;;;2.75;69.68;101073.31;4994684;28;20284;-75
2024/01/21 07:55:46;;;;;;;;;;;;;;;2.73;69.04;101072.56;4994423;28;20383;-76
2024/01/21 07:58:15;;;;;;;;;;;;;;;2.64;69.88;101083.53;4995903;28;19918;-77
2024/01/21 08:00:40;;;;;;;;;;;;;;;2.58;69.93;101083.06;4996602;28;19913;-76
2024/01/21 08:03:05;;;;;;;;;;;;;;;2.62;70.38;101081.97;4995630;28;19924;-76
2024/01/21 08:05:32;;;;;;;;;;;;;;;2.65;69.63;101085.22;4997066;28;19914;-76
2024/01/21 08:07:58;;;;;;;;;;;;;;;2.67;70.07;101091.19;4997447;28;20376;-77
2024/01/21 08:10:23;;;;;;;;;;;;;;;2.65;69.81;101087.00;4995979;28;19921;-76
2024/01/21 08:12:48;;;;;;;;;;;;;;;2.64;69.70;101083.53;4996179;28;19957;-76
2024/01/21 08:15:14;;;;;;;;;;;;;;;2.62;70.30;101089.78;4996129;28;19920;-77
2024/01/21 08:17:39;;;;;;;;;;;;;;;2.67;70.28;101088.59;4997966;28;19924;-77
2024/01/21 08:20:05;;;;;;;;;;;;;;;2.70;70.34;101091.00;4997500;28;19965;-76
2024/01/21 08:22:30;;;;;;;;;;;;;;;2.70;70.52;101084.94;4997829;28;19925;-76
2024/01/21 08:24:56;;;;;;;;;;;;;;;2.68;69.71;101079.00;4998275;28;19913;-76
2024/01/21 08:27:21;;;;;;;;;;;;;;;2.68;70.08;101086.81;4999126;28;19914;-76
2024/01/21 08:29:46;;;;;;;;;;;;;;;2.64;69.52;101086.16;4997307;28;19961;-76
2024/01/21 08:32:12;;;;;;;;;;;;;;;2.66;69.29;101083.44;4995698;28;20379;-76
2024/01/21 08:34:38;;;;;;;;;;;;;;;2.73;69.43;101100.41;4995856;28;19980;-76
2024/01/21 08:37:03;;;;;;;;;;;;;;;2.80;69.53;101093.91;4994131;28;19928;-76
2024/01/21 08:39:29;;;;;;;;;;;;;;;2.85;69.20;101103.16;4993914;28;20000;-76
2024/01/21 08:41:54;;;;;;;;;;;;;;;2.90;69.34;101096.81;4995113;28;19917;-75
2024/01/21 08:44:19;;;;;;;;;;;;;;;2.86;69.14;101102.22;4994756;28;19961;-76
2024/01/21 08:46:44;;;;;;;;;;;;;;;2.80;68.76;101106.97;4995394;28;19914;-77
2024/01/21 08:49:10;;;;;;;;;;;;;;;2.82;68.62;101107.69;4993486;28;20400;-76
2024/01/21 08:51:35;;;;;;;;;;;;;;;2.85;68.93;101110.13;4995156;28;19914;-76
2024/01/21 08:54:00;;;;;;;;;;;;;;;2.82;68.57;101111.16;4995197;28;19914;-76
2024/01/21 08:56:26;;;;;;;;;;;;;;;2.81;68.83;101108.63;4994989;28;19917;-76
2024/01/21 08:58:52;;;;;;;;;;;;;;;2.77;69.22;101109.75;4995229;28;19940;-76
2024/01/21 09:01:18;;;;;;;;;;;;;;;2.78;69.37;101112.25;4994075;28;19917;-76
2024/01/21 09:03:43;;;;;;;;;;;;;;;2.82;68.91;101098.09;4994872;28;19914;-76
2024/01/21 09:06:09;;;;;;;;;;;;;;;2.86;69.19;101110.03;4996231;28;19921;-77
2024/01/21 09:08:34;;;;;;;;;;;;;;;2.85;68.82;101110.97;4996391;28;19914;-76
2024/01/21 09:11:00;;;;;;;;;;;;;;;2.86;68.28;101101.38;4996126;28;19914;-77
2024/01/21 09:13:25;;;;;;;;;;;;;;;2.84;68.70;101100.63;4995877;28;19989;-77
2024/01/21 09:15:50;;;;;;;;;;;;;;;2.83;68.69;101097.19;4994867;28;19914;-76
2024/01/21 09:18:15;;;;;;;;;;;;;;;2.83;68.96;101097.19;4993558;28;20401;-77
2024/01/21 09:20:41;;;;;;;;;;;;;;;2.95;69.11;101097.38;4994406;28;19921;-77
2024/01/21 09:23:06;;;;;;;;;;;;;;;3.06;69.02;101092.41;4994485;28;19913;-77
2024/01/21 09:25:31;;;;;;;;;;;;;;;3.12;68.75;101094.63;4994501;28;20283;-77
2024/01/21 09:27:56;;;;;;;;;;;;;;;3.19;68.59;101096.78;4994657;28;19913;-77
2024/01/21 09:30:22;;;;;;;;;;;;;;;3.19;67.51;101096.78;4993493;28;19915;-77
2024/01/21 09:32:47;;;;;;;;;;;;;;;3.26;67.79;101093.81;4994388;28;20418;-77
2024/01/21 09:35:12;;;;;;;;;;;;;;;3.31;67.63;101089.13;4994692;28;19913;-77
2024/01/21 09:37:37;;;;;;;;;;;;;;;3.30;67.46;101092.69;4994457;28;19918;-79
2024/01/21 09:40:03;;;;;;;;;;;;;;;3.28;67.85;101090.16;4994523;28;19932;-77
2024/01/21 09:42:29;;;;;;;;;;;;;;;3.32;67.79;101094.25;4994476;28;19917;-77
2024/01/21 09:44:54;;;;;;;;;;;;;;;3.47;67.93;101079.44;4995823;28;19941;-77
2024/01/21 09:47:20;;;;;;;;;;;;;;;3.58;68.08;101086.59;4995168;28;19921;-78
2024/01/21 09:49:47;;;;;;;;;;;;;;;3.64;67.71;101079.22;4995504;28;19909;-78
2024/01/21 09:52:12;;;;;;;;;;;;;;;3.62;67.32;101075.03;4995453;28;19918;-79
2024/01/21 09:54:37;;;;;;;;;;;;;;;3.61;67.48;101063.72;4994598;28;20009;-78
2024/01/21 09:57:05;;;;;;;;;;;;;;;3.70;67.60;101063.16;4994033;28;20050;-78
2024/01/21 09:59:31;;;;;;;;;;;;;;;3.70;67.60;101054.47;4993561;28;20332;-77
2024/01/21 10:01:57;;;;;;;;;;;;;;;3.68;67.34;101056.34;4992924;28;19917;-76
2024/01/21 10:04:22;;;;;;;;;;;;;;;3.73;67.77;101060.38;4992589;28;20410;-76
2024/01/21 10:06:48;;;;;;;;;;;;;;;3.83;67.43;101056.25;4992324;28;19937;-77
2024/01/21 10:09:22;;;;;;;;;;;;;;;3.82;66.98;101051.13;4993681;28;19914;-78
2024/01/21 10:11:57;;;;;;;;;;;;;;;3.93;67.39;101053.03;4992474;28;19913;-77
2024/01/21 10:14:26;;;;;;;;;;;;;;;4.02;67.16;101053.28;4994260;28;19968;-77
2024/01/21 10:16:51;;;;;;;;;;;;;;;4.11;67.21;101050.06;4993120;28;20323;-77
2024/01/21 10:19:30;;;;;;;;;;;;;;;4.15;67.01;101045.47;4994275;28;19914;-77
2024/01/21 10:22:16;;;;;;;;;;;;;;;4.20;66.31;101043.41;4994271;28;19913;-77
2024/01/21 10:24:43;;;;;;;;;;;;;;;4.27;66.29;101038.63;4994603;28;19918;-77
2024/01/21 10:27:09;;;;;;;;;;;;;;;4.36;65.50;101041.47;4993224;28;19941;-77
2024/01/21 10:29:38;;;;;;;;;;;;;;;4.31;65.59;101047.94;4993718;28;20374;-77
2024/01/21 10:32:04;;;;;;;;;;;;;;;4.34;65.74;101048.56;4992083;28;20362;-77
2024/01/21 10:34:29;;;;;;;;;;;;;;;4.38;65.00;101047.44;4993317;28;19914;-77
2024/01/21 10:36:59;;;;;;;;;;;;;;;4.40;65.69;101056.00;4993403;28;20314;-77
2024/01/21 10:39:26;;;;;;;;;;;;;;;4.36;65.26;101046.69;4993136;28;19953;-77
2024/01/21 10:41:52;;;;;;;;;;;;;;;4.29;65.03;101047.19;4993131;28;19914;-77
2024/01/21 10:44:18;;;;;;;;;;;;;;;4.28;65.11;101046.34;4993668;28;20373;-76
2024/01/21 10:46:44;;;;;;;;;;;;;;;4.29;65.13;101034.13;4993372;28;19914;-77
2024/01/21 10:49:11;;;;;;;;;;;;;;;4.27;65.57;101044.69;4993117;28;19944;-76
2024/01/21 10:51:37;;;;;;;;;;;;;;;4.27;66.15;101042.06;4993810;28;19929;-76
2024/01/21 10:54:04;;;;;;;;;;;;;;;4.24;66.08;101046.66;4993491;28;19920;-76
2024/01/21 10:56:30;;;;;;;;;;;;;;;4.25;66.35;101050.94;4992031;28;19910;-77
2024/01/21 10:58:55;;;;;;;;;;;;;;;4.22;66.40;101052.00;4991939;28;19921;-76
2024/01/21 11:01:21;;;;;;;;;;;;;;;4.26;66.33;101048.22;4992750;28;19921;-77
2024/01/21 11:03:48;;;;;;;;;;;;;;;4.27;66.70;101046.47;4991509;28;20403;-77
2024/01/21 11:06:14;;;;;;;;;;;;;;;4.26;66.02;101048.22;4992959;28;19968;-76
2024/01/21 11:08:45;;;;;;;;;;;;;;;4.23;65.96;101042.38;4991507;28;19917;-76
2024/01/21 11:11:21;;;;;;;;;;;;;;;4.20;65.93;101045.19;4992775;28;19914;-77
2024/01/21 11:13:47;;;;;;;;;;;;;;;4.05;65.76;101036.56;4992827;28;19972;-77
2024/01/21 11:16:30;;;;;;;;;;;;;;;4.11;66.08;101041.41;4994204;28;19913;-77
2024/01/21 11:19:02;;;;;;;;;;;;;;;4.09;66.42;101030.22;4994036;28;19928;-77
2024/01/21 11:21:28;;;;;;;;;;;;;;;4.10;66.30;101026.66;4994064;28;20141;-77
2024/01/21 11:24:03;;;;;;;;;;;;;;;4.05;66.68;101033.97;4993952;28;19918;-76
2024/01/21 11:26:30;;;;;;;;;;;;;;;4.02;66.13;101021.94;4993956;28;19921;-76
2024/01/21 11:28:59;;;;;;;;;;;;;;;4.11;65.98;101018.72;4993743;28;20406;-77
2024/01/21 11:31:25;;;;;;;;;;;;;;;4.04;65.72;101014.81;4994261;28;19914;-76
2024/01/21 11:34:09;;;;;;;;;;;;;;;4.04;65.29;101014.81;4995358;28;19913;-76
2024/01/21 11:36:37;;;;;;;;;;;;;;;3.98;64.38;101011.78;4996989;28;19985;-76
2024/01/21 11:39:03;;;;;;;;;;;;;;;3.99;64.90;101013.44;4993099;28;19939;-76
2024/01/21 11:41:41;;;;;;;;;;;;;;;4.01;64.67;101017.63;4992461;28;19997;-76
2024/01/21 11:44:13;;;;;;;;;;;;;;;4.02;64.54;101008.03;4992409;28;20034;-76
2024/01/21 11:46:39;;;;;;;;;;;;;;;4.09;64.77;101010.13;4992435;28;20348;-77
2024/01/21 11:49:11;;;;;;;;;;;;;;;4.13;64.90;101016.00;4991125;28;19929;-77
2024/01/21 11:51:39;;;;;;;;;;;;;;;4.16;64.43;101010.56;4992268;28;19918;-77
2024/01/21 11:54:05;;;;;;;;;;;;;;;4.13;64.28;101005.53;4992541;28;19914;-77
2024/01/21 11:56:30;;;;;;;;;;;;;;;4.13;64.19;101003.75;4992190;28;19921;-76
2024/01/21 11:58:57;;;;;;;;;;;;;;;4.12;62.54;101003.88;4992183;28;19918;-77
2024/01/21 12:01:23;;;;;;;;;;;;;;;4.15;63.58;101004.50;4992604;28;20024;-76
2024/01/21 12:03:48;;;;;;;;;;;;;;;4.14;63.17;101007.22;4990909;28;20403;-76
2024/01/21 12:06:15;;;;;;;;;;;;;;;4.23;63.45;100998.75;4992117;28;19953;-76
2024/01/21 12:08:43;;;;;;;;;;;;;;;4.31;63.69;100999.09;4992029;28;19914;-77
2024/01/21 12:11:08;;;;;;;;;;;;;;;4.36;62.64;100989.16;4991932;28;20008;-76
2024/01/21 12:13:33;;;;;;;;;;;;;;;4.39;63.25;100991.56;4992040;28;20025;-76
2024/01/21 12:15:58;;;;;;;;;;;;;;;4.49;63.65;100990.97;4992097;28;20004;-76
2024/01/21 12:18:24;;;;;;;;;;;;;;;4.53;62.80;100995.06;4991996;28;19918;-75
2024/01/21 12:20:50;;;;;;;;;;;;;;;4.53;62.96;100992.44;4992013;28;20020;-74
2024/01/21 12:23:22;;;;;;;;;;;;;;;4.53;62.67;100997.69;4992051;28;19968;-75
2024/01/21 12:25:47;;;;;;;;;;;;;;;4.47;61.78;100985.84;4993787;28;19921;-75
2024/01/21 12:28:13;;;;;;;;;;;;;;;4.45;62.69;100990.31;4995742;28;20302;-75
2024/01/21 12:30:38;;;;;;;;;;;;;;;4.43;62.15;100992.19;4995547;28;19980;-75
2024/01/21 12:33:04;;;;;;;;;;;;;;;4.34;61.04;100993.66;4995518;28;19928;-76
2024/01/21 12:35:29;;;;;;;;;;;;;;;4.42;63.13;101001.81;4995481;28;20402;-76
2024/01/21 12:37:55;;;;;;;;;;;;;;;4.39;62.01;100995.97;4994039;28;19924;-76
2024/01/21 12:40:20;;;;;;;;;;;;;;;4.42;62.77;101008.84;4995155;28;20390;-76